CheckWX is a tool to help pilots better visualize weather data.  It is not intended as a substitute for an official pre-flight weather briefing.

14:49:26 UTC

OMSJ TAF
Sharjah International Airport
Sharjah, United Arab Emirates
TAF OMSJ 231103Z 2312/2418 10010KT 7000 FEW030 PROB30 2312/2314 11020KT 4000 DU BECMG 2313/2315 10015KT BECMG 2409/2411 35012KT BECMG 2415/2417 09005KT

Mar-23@
12:00 UTC

Mar-23 @ 12:00 UTC

Mar-23@
13:00 UTC

Mar-23 @ 13:00 UTC

TAF OMSJ 231103Z 2312/2418 10010KT 7000 FEW030

Expired

Wind
  • 100° at 10 KTS
Cloud Levels
  • Few at 3,000' AGL

Mar-23@
12:00 UTC

Mar-23 @ 12:00 UTC

Mar-23@
14:00 UTC

Mar-23 @ 14:00 UTC

PROB30 2312/2314 11020KT 4000 DU

Expired

Wind
  • 110° at 20 KTS
Conditions
Dust

Mar-23@
13:00 UTC

Mar-23 @ 13:00 UTC

Mar-24@
09:00 UTC

Mar-24 @ 09:00 UTC

BECMG 2313/2315 10015KT

Becoming

Becoming Conditions expected by Sat, Mar 23, 2019 @ 15:00 UTC

Wind
  • 100° at 15 KTS
Cloud Levels
  • Few at 3,000' AGL

Mar-24@
09:00 UTC

Mar-24 @ 09:00 UTC

Mar-24@
15:00 UTC

Mar-24 @ 15:00 UTC

BECMG 2409/2411 35012KT

Becoming

Becoming Conditions expected by Sun, Mar 24, 2019 @ 11:00 UTC

Wind
  • 350° at 12 KTS
Cloud Levels
  • Few at 3,000' AGL

Mar-24@
15:00 UTC

Mar-24 @ 15:00 UTC

Mar-24@
18:00 UTC

Mar-24 @ 18:00 UTC

BECMG 2415/2417 09005KT

Becoming

Becoming Conditions expected by Sun, Mar 24, 2019 @ 17:00 UTC

Wind
  • 090° at 5 KTS
Cloud Levels
  • Few at 3,000' AGL